aviador You're here:

KMQY Decoded Metar

SMYRNA in TN, USA
Report Time2017-09-20 19:56:00
UTC Time2017-09-20 20:11:24
Flight Rules vfr VFR
WindCalm
Visibility9999 m
Phenomena:N/A
Clouds:Scattered 060 Hf
Expected CloudBase > 3,600 ft AGL from Temp-Dew spread
CeilingNone
Temp31°C (ISA +17)
Dew Point22°C (59% RH)
Heat Index34.6°C
QNH1017 hPa
Density Alt2,713 ft
Elevation545 ft
Report Wrong Elevation
Raw Report
KMQY 201956Z 00000KT 10SM SCT060 31/22 A3003 RMK AO2 SLPNO
T03070220 $=

Extra information for KMQY:More info

Metar Taf Metar & Taf Last 4 Metars F.Rules Stats Wind Profile Meteogram Temp Stats Airport Information Weather charts Add Link Nearby VenuesMetar ALERT Operation Metar Decoded Social comments

AIRNAV info for KMQY